»·PEaware :: EDV3700 KSEA-KSFO

EDV3700 :: KSEA-KSFO

FLIGHT INFORMATION

Flight Status: Arrived
Operator: Unknown
More flights by this operator :: More flights under this callsign
Pilot: Max David (7509)
Aircraft: CANADAIR CL-600 CRJ-200
(CRJ2)
More flights by this aircraft type
Origin: KSEA Seattle-Tacoma Intl
United States
Destination: KSFO San Francisco Intl
United States
More flights between these airports :: More routes between these airports
Route: HAROB5 FEPOT Q3 FOWND MLBEC BDEGA2
File this flight plan on PilotEdge
Remarks:
Altitude:
(Current/Filed)
27,000ft
Speed:
(Current/Filed)
450kts
Departed: 07-Jan-17 10:44 AM
Arrived: 07-Jan-17 12:53 PM
Distance/Time
Traveled:
590nm/2:09
Distance/Time
To Go:
Arrived

Flight Plot

Page will automatically refresh every two minutes.


Map Options




Map Legend


Flown Route
Filed Route
Departure Airport
Arrival Airport
Navaid (VOR, NDB)
Fix

Horizontal Profiles

Position Reports

Time Latitude Longitude Heading Altitude Ground
Speed
07-Jan-17 10:24 47.448942 -122.304423 87 403ft 0kts
07-Jan-17 10:25 47.448942 -122.304423 87 403ft 0kts
07-Jan-17 10:26 47.448942 -122.304423 87 403ft 0kts
07-Jan-17 10:27 47.448942 -122.304423 87 403ft 0kts
07-Jan-17 10:28 47.448942 -122.304423 87 403ft 0kts
07-Jan-17 10:29 47.448942 -122.304423 87 403ft 0kts
07-Jan-17 10:30 47.448942 -122.304423 87 403ft 0kts
07-Jan-17 10:31 47.448942 -122.304423 87 403ft 0kts
07-Jan-17 10:32 47.448942 -122.304423 87 403ft 0kts
07-Jan-17 10:33 47.448942 -122.304423 87 403ft 0kts
07-Jan-17 10:34 47.448942 -122.304423 87 403ft 0kts
07-Jan-17 10:35 47.448942 -122.304424 87 403ft 0kts
07-Jan-17 10:36 47.448938 -122.304548 86 403ft 0kts
07-Jan-17 10:37 47.448685 -122.305069 32 401ft 0kts
07-Jan-17 10:38 47.448265 -122.305463 32 399ft 0kts
07-Jan-17 10:39 47.448194 -122.305529 32 399ft 0kts
07-Jan-17 10:40 47.450847 -122.306236 359 411ft 21kts
07-Jan-17 10:41 47.456614 -122.306205 359 436ft 18kts
07-Jan-17 10:42 47.459345 -122.306167 1 438ft 2kts
07-Jan-17 10:43 47.462855 -122.307404 238 413ft 10kts
07-Jan-17 10:44 47.450648 -122.308032 176 408ft 123kts
07-Jan-17 10:45 47.406675 -122.309093 179 2912ft 199kts
07-Jan-17 10:46 47.352833 -122.311430 180 5653ft 237kts
07-Jan-17 10:47 47.304494 -122.361320 255 7102ft 304kts
07-Jan-17 10:48 47.306203 -122.467381 272 9578ft 338kts
07-Jan-17 10:49 47.310608 -122.580342 270 11997ft 352kts
07-Jan-17 10:50 47.312890 -122.658837 268 13668ft 354kts
07-Jan-17 10:51 47.314604 -122.765403 259 16039ft 344kts
07-Jan-17 10:52 47.288571 -122.873129 244 18729ft 325kts
07-Jan-17 10:53 47.260968 -122.975328 244 21207ft 312kts
07-Jan-17 10:54 47.219933 -123.063570 219 23281ft 300kts
07-Jan-17 10:55 47.164009 -123.127560 217 25322ft 290kts
07-Jan-17 10:56 47.108859 -123.188212 217 26995ft 287kts
07-Jan-17 10:57 47.035919 -123.217397 183 27015ft 342kts
07-Jan-17 10:58 46.949855 -123.214589 182 27010ft 377kts
07-Jan-17 10:59 46.865864 -123.211748 181 27021ft 402kts
07-Jan-17 11:00 46.767102 -123.208387 181 27010ft 422kts
07-Jan-17 11:01 46.664969 -123.204979 181 27002ft 431kts
07-Jan-17 11:02 46.564915 -123.201657 181 27000ft 433kts
07-Jan-17 11:03 46.482104 -123.198918 181 27024ft 434kts
07-Jan-17 11:04 46.424413 -123.197026 181 27032ft 434kts
07-Jan-17 11:05 46.324341 -123.193736 181 27036ft 434kts
07-Jan-17 11:06 46.211646 -123.190053 181 27067ft 434kts
07-Jan-17 11:07 46.098589 -123.186362 181 27071ft 434kts
07-Jan-17 11:08 45.985005 -123.182681 181 27099ft 434kts
07-Jan-17 11:09 45.885459 -123.179455 181 27164ft 434kts
07-Jan-17 11:10 45.786205 -123.176273 181 27253ft 435kts
07-Jan-17 11:11 45.690074 -123.173179 181 27329ft 434kts
07-Jan-17 11:12 45.594068 -123.170108 181 27353ft 435kts
07-Jan-17 11:13 45.498663 -123.167065 181 27385ft 435kts
07-Jan-17 11:14 45.403192 -123.164029 181 27425ft 435kts
07-Jan-17 11:15 45.304403 -123.160903 181 27418ft 436kts
07-Jan-17 11:16 45.199889 -123.157599 181 27428ft 435kts
07-Jan-17 11:17 45.092203 -123.154176 181 27479ft 434kts
07-Jan-17 11:18 44.989801 -123.150911 183 27564ft 431kts
07-Jan-17 11:19 44.890930 -123.147909 183 27528ft 430kts
07-Jan-17 11:20 44.785748 -123.144658 183 27545ft 430kts
07-Jan-17 11:21 44.674244 -123.141202 183 27535ft 430kts
07-Jan-17 11:22 44.561004 -123.137714 183 27519ft 430kts
07-Jan-17 11:23 44.450825 -123.134054 183 27511ft 430kts
07-Jan-17 11:24 44.348879 -123.130422 183 27479ft 431kts
07-Jan-17 11:25 44.251757 -123.126961 183 27472ft 430kts
07-Jan-17 11:26 44.157986 -123.123629 183 27458ft 430kts
07-Jan-17 11:27 44.052096 -123.119871 183 27420ft 430kts
07-Jan-17 11:28 43.949723 -123.116255 183 27406ft 430kts
07-Jan-17 11:29 43.853559 -123.112869 183 27415ft 430kts
07-Jan-17 11:30 43.751655 -123.109296 183 27437ft 430kts
07-Jan-17 11:31 43.646077 -123.105608 183 27453ft 430kts
07-Jan-17 11:32 43.541969 -123.101983 183 27395ft 431kts
07-Jan-17 11:33 43.441879 -123.098507 183 27551ft 429kts
07-Jan-17 11:34 43.340797 -123.095003 183 27658ft 428kts
07-Jan-17 11:35 43.242989 -123.091628 183 27737ft 428kts
07-Jan-17 11:36 43.140839 -123.088124 184 27846ft 428kts
07-Jan-17 11:37 43.037176 -123.084572 184 27958ft 427kts
07-Jan-17 11:38 42.937313 -123.081075 185 28408ft 418kts
07-Jan-17 11:39 42.851232 -123.078186 186 28563ft 413kts
07-Jan-17 11:40 42.755337 -123.074972 186 28550ft 413kts
07-Jan-17 11:41 42.659697 -123.071742 186 28245ft 412kts
07-Jan-17 11:42 42.562774 -123.068496 186 26881ft 413kts
07-Jan-17 11:43 42.469453 -123.065352 186 26797ft 404kts
07-Jan-17 11:44 42.379722 -123.062435 186 26795ft 400kts
07-Jan-17 11:45 42.284562 -123.059361 186 26794ft 399kts
07-Jan-17 11:46 42.191717 -123.056364 186 26793ft 398kts
07-Jan-17 11:47 42.096397 -123.053301 186 26791ft 398kts
07-Jan-17 11:48 41.998730 -123.050169 186 26797ft 397kts
07-Jan-17 11:49 41.904648 -123.047160 186 26809ft 397kts
07-Jan-17 11:50 41.814958 -123.044292 186 26847ft 398kts
07-Jan-17 11:51 41.717822 -123.041213 186 26865ft 398kts
07-Jan-17 11:52 41.622974 -123.038220 186 26864ft 399kts
07-Jan-17 11:53 41.530025 -123.035280 186 26862ft 399kts
07-Jan-17 11:54 41.432596 -123.032204 186 26861ft 399kts
07-Jan-17 11:55 41.332592 -123.029069 186 26860ft 399kts
07-Jan-17 11:56 41.235049 -123.026116 186 26858ft 399kts
07-Jan-17 11:57 41.133738 -123.023037 186 26856ft 398kts
07-Jan-17 11:58 41.031960 -123.019934 187 26930ft 397kts
07-Jan-17 11:59 40.930090 -123.016888 187 27018ft 397kts
07-Jan-17 12:00 40.836065 -123.014091 188 27032ft 399kts
07-Jan-17 12:01 40.736853 -123.011153 187 27032ft 401kts
07-Jan-17 12:02 40.634815 -123.008087 188 27028ft 401kts
07-Jan-17 12:03 40.531500 -123.005016 188 27027ft 401kts
07-Jan-17 12:04 40.428225 -123.001946 187 27025ft 401kts
07-Jan-17 12:05 40.326468 -122.998956 188 27025ft 401kts
07-Jan-17 12:06 40.229505 -122.996088 188 27033ft 401kts
07-Jan-17 12:07 40.130342 -122.993201 187 27029ft 401kts
07-Jan-17 12:08 40.029482 -122.990250 188 27010ft 401kts
07-Jan-17 12:09 39.930331 -122.987347 187 26999ft 401kts
07-Jan-17 12:10 39.838491 -122.984652 188 27011ft 402kts
07-Jan-17 12:11 39.739222 -122.981795 187 26995ft 403kts
07-Jan-17 12:12 39.640528 -122.978943 188 26975ft 403kts
07-Jan-17 12:13 39.539620 -122.976017 188 26971ft 403kts
07-Jan-17 12:14 39.442177 -122.973236 188 26970ft 403kts
07-Jan-17 12:15 39.341663 -122.970343 188 26969ft 403kts
07-Jan-17 12:16 39.245621 -122.967600 188 26967ft 403kts
07-Jan-17 12:17 39.152004 -122.964927 187 26968ft 403kts
07-Jan-17 12:18 39.052721 -122.962496 188 26964ft 402kts
07-Jan-17 12:19 38.954711 -122.960539 188 26970ft 403kts
07-Jan-17 12:20 38.869708 -122.957397 182 26985ft 415kts
07-Jan-17 12:21 38.769608 -122.927851 177 26993ft 424kts
07-Jan-17 12:22 38.668876 -122.898024 177 26994ft 425kts
07-Jan-17 12:23 38.565406 -122.867490 177 26995ft 425kts
07-Jan-17 12:24 38.467061 -122.838421 178 26604ft 372kts
07-Jan-17 12:25 38.384636 -122.814172 180 26084ft 312kts
07-Jan-17 12:26 38.319101 -122.794624 186 26048ft 205kts
07-Jan-17 12:27 38.279476 -122.783205 190 25140ft 155kts
07-Jan-17 12:28 38.238707 -122.771789 186 22826ft 185kts
07-Jan-17 12:29 38.192903 -122.758358 184 20605ft 187kts
07-Jan-17 12:30 38.157398 -122.747921 184 19383ft 169kts
07-Jan-17 12:31 38.108658 -122.733909 182 17705ft 184kts
07-Jan-17 12:32 38.062590 -122.720794 177 16630ft 270kts
07-Jan-17 12:33 37.979858 -122.696637 174 15094ft 341kts
07-Jan-17 12:34 37.897602 -122.670034 162 13710ft 349kts
07-Jan-17 12:35 37.838744 -122.609969 147 12363ft 298kts
07-Jan-17 12:36 37.798748 -122.566738 148 11345ft 295kts
07-Jan-17 12:37 37.753524 -122.518585 148 11043ft 271kts
07-Jan-17 12:38 37.704489 -122.466615 148 11044ft 291kts
07-Jan-17 12:39 37.670457 -122.397353 109 10429ft 330kts
07-Jan-17 12:40 37.672596 -122.332918 77 9402ft 318kts
07-Jan-17 12:41 37.705609 -122.270674 53 8129ft 294kts
07-Jan-17 12:42 37.740381 -122.219077 53 6795ft 246kts
07-Jan-17 12:43 37.775170 -122.169398 49 5303ft 217kts
07-Jan-17 12:44 37.818680 -122.181979 275 4040ft 193kts
07-Jan-17 12:45 37.820460 -122.223421 235 4029ft 169kts
07-Jan-17 12:46 37.793149 -122.256486 203 3656ft 157kts
07-Jan-17 12:47 37.758108 -122.280108 203 2890ft 145kts
07-Jan-17 12:48 37.726174 -122.301419 202 2206ft 128kts
07-Jan-17 12:49 37.698105 -122.320117 202 1573ft 121kts
07-Jan-17 12:50 37.671673 -122.337674 202 1001ft 115kts
07-Jan-17 12:51 37.646564 -122.354409 199 459ft 110kts
07-Jan-17 12:52 37.623042 -122.370026 201 16ft 90kts
07-Jan-17 12:53 37.616916 -122.374176 231 14ft 3kts
07-Jan-17 12:54 37.618097 -122.378230 248 25ft 11kts
07-Jan-17 12:55 37.615461 -122.380467 228 28ft 8kts
07-Jan-17 12:56 37.615665 -122.382525 221 28ft 3kts
07-Jan-17 12:57 37.615504 -122.382724 241 28ft 0kts

Navigation Log

Ident Type
1. KSEA Airport
2. CAVOB Fix
3. RENBE Fix
4. RICHR Fix
5. EMRLD Fix
6. HAROB Fix
7. FEPOT Fix
8. FEPOT Navaid
9. FAMUK Navaid
10. FRFLY Navaid
11. FINER Navaid
12. FOWND Navaid
13. MLBEC Fix
14. JONNE Fix
15. BGGLO Fix
16. LOZIT Fix
17. BDEGA Fix
18. CORKK Fix
19. BRIXX Fix
20. KSFO Airport